sensor_id;sensor_type;location;lat;lon;timestamp;temperature;humidity
25058;DHT22;13057;50.978;11.034;2023-02-04T00:01:22;8.80;99.10
25058;DHT22;13057;50.978;11.034;2023-02-04T00:03:48;8.70;99.20
25058;DHT22;13057;50.978;11.034;2023-02-04T00:06:14;8.70;99.40
25058;DHT22;13057;50.978;11.034;2023-02-04T00:08:40;8.60;99.40
25058;DHT22;13057;50.978;11.034;2023-02-04T00:11:07;8.60;99.50
25058;DHT22;13057;50.978;11.034;2023-02-04T00:13:32;8.50;99.80
25058;DHT22;13057;50.978;11.034;2023-02-04T00:15:58;8.50;99.90
25058;DHT22;13057;50.978;11.034;2023-02-04T00:18:24;8.50;99.90
25058;DHT22;13057;50.978;11.034;2023-02-04T00:20:50;8.60;99.90
25058;DHT22;13057;50.978;11.034;2023-02-04T00:23:16;8.50;99.90
25058;DHT22;13057;50.978;11.034;2023-02-04T00:25:42;8.80;99.90
25058;DHT22;13057;50.978;11.034;2023-02-04T00:28:08;8.70;99.90
25058;DHT22;13057;50.978;11.034;2023-02-04T00:30:33;8.50;99.90
25058;DHT22;13057;50.978;11.034;2023-02-04T00:32:59;8.50;99.90
25058;DHT22;13057;50.978;11.034;2023-02-04T00:35:25;8.60;99.80
25058;DHT22;13057;50.978;11.034;2023-02-04T00:37:51;8.60;99.70
25058;DHT22;13057;50.978;11.034;2023-02-04T00:40:17;8.60;99.50
25058;DHT22;13057;50.978;11.034;2023-02-04T00:42:43;8.50;99.50
25058;DHT22;13057;50.978;11.034;2023-02-04T00:45:10;8.40;99.90
25058;DHT22;13057;50.978;11.034;2023-02-04T00:47:36;8.40;99.90
25058;DHT22;13057;50.978;11.034;2023-02-04T00:50:01;8.40;99.80
25058;DHT22;13057;50.978;11.034;2023-02-04T00:52:28;8.40;99.80
25058;DHT22;13057;50.978;11.034;2023-02-04T00:54:54;8.40;99.90
25058;DHT22;13057;50.978;11.034;2023-02-04T00:57:20;8.40;99.90
25058;DHT22;13057;50.978;11.034;2023-02-04T00:59:45;8.30;99.90
25058;DHT22;13057;50.978;11.034;2023-02-04T01:02:11;8.30;99.90
25058;DHT22;13057;50.978;11.034;2023-02-04T01:04:37;8.30;99.90
25058;DHT22;13057;50.978;11.034;2023-02-04T01:07:03;8.20;99.90
25058;DHT22;13057;50.978;11.034;2023-02-04T01:09:29;8.20;99.90
25058;DHT22;13057;50.978;11.034;2023-02-04T01:11:55;8.20;99.90
25058;DHT22;13057;50.978;11.034;2023-02-04T01:14:20;8.20;99.90
25058;DHT22;13057;50.978;11.034;2023-02-04T01:16:46;8.20;99.90
25058;DHT22;13057;50.978;11.034;2023-02-04T01:19:12;8.20;99.90
25058;DHT22;13057;50.978;11.034;2023-02-04T01:21:38;8.20;99.90
25058;DHT22;13057;50.978;11.034;2023-02-04T01:24:04;8.10;99.90
25058;DHT22;13057;50.978;11.034;2023-02-04T01:26:30;8.10;99.90
25058;DHT22;13057;50.978;11.034;2023-02-04T01:28:56;8.20;99.90
25058;DHT22;13057;50.978;11.034;2023-02-04T01:31:22;8.10;99.90
25058;DHT22;13057;50.978;11.034;2023-02-04T01:33:48;8.10;99.90
25058;DHT22;13057;50.978;11.034;2023-02-04T01:36:14;8.10;99.90
25058;DHT22;13057;50.978;11.034;2023-02-04T01:38:47;8.00;99.90
25058;DHT22;13057;50.978;11.034;2023-02-04T01:41:14;8.00;99.90
25058;DHT22;13057;50.978;11.034;2023-02-04T01:43:40;7.90;99.90
25058;DHT22;13057;50.978;11.034;2023-02-04T01:46:06;7.80;99.90
25058;DHT22;13057;50.978;11.034;2023-02-04T01:48:32;7.70;99.90
25058;DHT22;13057;50.978;11.034;2023-02-04T01:51:03;7.70;99.90
25058;DHT22;13057;50.978;11.034;2023-02-04T01:53:31;7.70;99.90
25058;DHT22;13057;50.978;11.034;2023-02-04T01:55:57;7.70;99.90
25058;DHT22;13057;50.978;11.034;2023-02-04T01:58:23;7.70;99.90
25058;DHT22;13057;50.978;11.034;2023-02-04T02:00:50;7.70;99.90
25058;DHT22;13057;50.978;11.034;2023-02-04T02:03:16;7.70;99.90
25058;DHT22;13057;50.978;11.034;2023-02-04T02:05:45;7.60;99.90
25058;DHT22;13057;50.978;11.034;2023-02-04T02:08:12;7.60;99.90
25058;DHT22;13057;50.978;11.034;2023-02-04T02:10:40;7.60;99.90
25058;DHT22;13057;50.978;11.034;2023-02-04T02:13:07;7.70;99.90
25058;DHT22;13057;50.978;11.034;2023-02-04T02:15:34;7.70;99.90
25058;DHT22;13057;50.978;11.034;2023-02-04T02:18:01;7.60;99.90
25058;DHT22;13057;50.978;11.034;2023-02-04T02:20:27;7.70;99.90
25058;DHT22;13057;50.978;11.034;2023-02-04T02:25:36;7.70;99.90
25058;DHT22;13057;50.978;11.034;2023-02-04T02:28:08;7.50;99.90
25058;DHT22;13057;50.978;11.034;2023-02-04T02:30:35;7.30;99.90
25058;DHT22;13057;50.978;11.034;2023-02-04T02:33:01;6.90;99.90
25058;DHT22;13057;50.978;11.034;2023-02-04T02:35:27;6.40;99.90
25058;DHT22;13057;50.978;11.034;2023-02-04T02:37:53;6.20;99.90
25058;DHT22;13057;50.978;11.034;2023-02-04T02:40:19;6.10;99.90
25058;DHT22;13057;50.978;11.034;2023-02-04T02:42:47;6.00;99.90
25058;DHT22;13057;50.978;11.034;2023-02-04T02:45:21;5.90;99.90
25058;DHT22;13057;50.978;11.034;2023-02-04T02:47:49;5.80;99.90
25058;DHT22;13057;50.978;11.034;2023-02-04T02:50:18;5.80;99.90
25058;DHT22;13057;50.978;11.034;2023-02-04T02:52:48;5.80;99.90
25058;DHT22;13057;50.978;11.034;2023-02-04T02:55:17;5.80;99.90
25058;DHT22;13057;50.978;11.034;2023-02-04T02:57:45;5.80;99.90
25058;DHT22;13057;50.978;11.034;2023-02-04T03:00:16;5.70;99.90
25058;DHT22;13057;50.978;11.034;2023-02-04T03:02:43;5.80;99.90
25058;DHT22;13057;50.978;11.034;2023-02-04T03:05:10;5.90;99.90
25058;DHT22;13057;50.978;11.034;2023-02-04T03:07:36;5.90;99.90
25058;DHT22;13057;50.978;11.034;2023-02-04T03:10:03;5.90;99.90
25058;DHT22;13057;50.978;11.034;2023-02-04T03:12:29;6.00;99.90
25058;DHT22;13057;50.978;11.034;2023-02-04T03:14:55;6.00;99.90
25058;DHT22;13057;50.978;11.034;2023-02-04T03:17:21;6.10;99.90
25058;DHT22;13057;50.978;11.034;2023-02-04T03:19:48;6.10;99.90
25058;DHT22;13057;50.978;11.034;2023-02-04T03:22:14;6.10;99.90
25058;DHT22;13057;50.978;11.034;2023-02-04T03:24:40;6.00;99.90
25058;DHT22;13057;50.978;11.034;2023-02-04T03:27:06;6.10;99.90
25058;DHT22;13057;50.978;11.034;2023-02-04T03:29:32;6.10;99.90
25058;DHT22;13057;50.978;11.034;2023-02-04T03:31:58;6.20;99.90
25058;DHT22;13057;50.978;11.034;2023-02-04T03:34:24;6.20;99.90
25058;DHT22;13057;50.978;11.034;2023-02-04T03:36:50;6.10;99.90
25058;DHT22;13057;50.978;11.034;2023-02-04T03:39:16;6.10;99.90
25058;DHT22;13057;50.978;11.034;2023-02-04T03:41:42;6.10;99.90
25058;DHT22;13057;50.978;11.034;2023-02-04T03:44:08;6.10;99.90
25058;DHT22;13057;50.978;11.034;2023-02-04T03:46:34;6.10;99.90
25058;DHT22;13057;50.978;11.034;2023-02-04T03:48:59;6.10;99.90
25058;DHT22;13057;50.978;11.034;2023-02-04T03:51:25;6.00;99.90
25058;DHT22;13057;50.978;11.034;2023-02-04T03:53:51;6.00;99.90
25058;DHT22;13057;50.978;11.034;2023-02-04T03:56:17;6.10;99.90
25058;DHT22;13057;50.978;11.034;2023-02-04T03:58:43;6.00;99.90
25058;DHT22;13057;50.978;11.034;2023-02-04T04:01:08;5.90;99.90
25058;DHT22;13057;50.978;11.034;2023-02-04T04:03:35;5.90;99.90
25058;DHT22;13057;50.978;11.034;2023-02-04T04:06:00;5.90;99.90
25058;DHT22;13057;50.978;11.034;2023-02-04T04:08:26;5.80;99.90
25058;DHT22;13057;50.978;11.034;2023-02-04T04:10:52;5.90;99.90
25058;DHT22;13057;50.978;11.034;2023-02-04T04:13:18;5.90;99.90
25058;DHT22;13057;50.978;11.034;2023-02-04T04:15:44;5.90;99.90
25058;DHT22;13057;50.978;11.034;2023-02-04T04:18:12;5.90;99.90
25058;DHT22;13057;50.978;11.034;2023-02-04T04:20:38;5.90;99.90
25058;DHT22;13057;50.978;11.034;2023-02-04T04:23:04;5.90;99.90
25058;DHT22;13057;50.978;11.034;2023-02-04T04:25:30;5.80;99.90
25058;DHT22;13057;50.978;11.034;2023-02-04T04:27:56;5.90;99.90
25058;DHT22;13057;50.978;11.034;2023-02-04T04:30:21;5.80;99.90
25058;DHT22;13057;50.978;11.034;2023-02-04T04:32:47;5.80;99.90
25058;DHT22;13057;50.978;11.034;2023-02-04T04:35:13;5.70;99.90
25058;DHT22;13057;50.978;11.034;2023-02-04T04:37:39;5.70;99.90
25058;DHT22;13057;50.978;11.034;2023-02-04T04:40:05;5.70;99.90
25058;DHT22;13057;50.978;11.034;2023-02-04T04:42:31;5.80;99.90
25058;DHT22;13057;50.978;11.034;2023-02-04T04:44:57;5.80;99.90
25058;DHT22;13057;50.978;11.034;2023-02-04T04:47:23;5.80;99.90
25058;DHT22;13057;50.978;11.034;2023-02-04T04:49:49;5.70;99.90
25058;DHT22;13057;50.978;11.034;2023-02-04T04:52:15;5.60;99.90
25058;DHT22;13057;50.978;11.034;2023-02-04T04:54:40;5.60;99.90
25058;DHT22;13057;50.978;11.034;2023-02-04T04:57:06;5.60;99.90
25058;DHT22;13057;50.978;11.034;2023-02-04T04:59:32;5.60;99.90
25058;DHT22;13057;50.978;11.034;2023-02-04T05:01:58;5.50;99.90
25058;DHT22;13057;50.978;11.034;2023-02-04T05:04:23;5.50;99.90
25058;DHT22;13057;50.978;11.034;2023-02-04T05:06:49;5.60;99.90
25058;DHT22;13057;50.978;11.034;2023-02-04T05:09:15;5.70;99.90
25058;DHT22;13057;50.978;11.034;2023-02-04T05:11:42;5.70;99.90
25058;DHT22;13057;50.978;11.034;2023-02-04T05:14:07;5.70;99.90
25058;DHT22;13057;50.978;11.034;2023-02-04T05:16:33;5.70;99.90
25058;DHT22;13057;50.978;11.034;2023-02-04T05:18:59;5.70;99.90
25058;DHT22;13057;50.978;11.034;2023-02-04T05:21:25;5.70;99.90
25058;DHT22;13057;50.978;11.034;2023-02-04T05:23:51;5.60;99.90
25058;DHT22;13057;50.978;11.034;2023-02-04T05:26:16;5.70;99.90
25058;DHT22;13057;50.978;11.034;2023-02-04T05:28:42;5.70;99.90
25058;DHT22;13057;50.978;11.034;2023-02-04T05:31:08;5.60;99.90
25058;DHT22;13057;50.978;11.034;2023-02-04T05:33:37;5.50;99.90
25058;DHT22;13057;50.978;11.034;2023-02-04T05:36:03;5.50;99.90
25058;DHT22;13057;50.978;11.034;2023-02-04T05:38:29;5.50;99.90
25058;DHT22;13057;50.978;11.034;2023-02-04T05:40:54;5.40;99.90
25058;DHT22;13057;50.978;11.034;2023-02-04T05:43:20;5.40;99.90
25058;DHT22;13057;50.978;11.034;2023-02-04T05:45:46;5.40;99.90
25058;DHT22;13057;50.978;11.034;2023-02-04T05:48:12;5.40;99.90
25058;DHT22;13057;50.978;11.034;2023-02-04T05:50:38;5.40;99.90
25058;DHT22;13057;50.978;11.034;2023-02-04T05:53:04;5.40;99.90
25058;DHT22;13057;50.978;11.034;2023-02-04T05:55:29;5.50;99.90
25058;DHT22;13057;50.978;11.034;2023-02-04T05:57:55;5.40;99.90
25058;DHT22;13057;50.978;11.034;2023-02-04T06:00:21;5.50;99.90
25058;DHT22;13057;50.978;11.034;2023-02-04T06:02:47;5.60;99.90
25058;DHT22;13057;50.978;11.034;2023-02-04T06:05:13;5.60;99.90
25058;DHT22;13057;50.978;11.034;2023-02-04T06:07:41;5.70;99.90
25058;DHT22;13057;50.978;11.034;2023-02-04T06:10:08;5.70;99.90
25058;DHT22;13057;50.978;11.034;2023-02-04T06:12:34;5.50;99.90
25058;DHT22;13057;50.978;11.034;2023-02-04T06:15:00;5.50;99.90
25058;DHT22;13057;50.978;11.034;2023-02-04T06:17:26;5.60;99.90
25058;DHT22;13057;50.978;11.034;2023-02-04T06:19:54;5.60;99.90
25058;DHT22;13057;50.978;11.034;2023-02-04T06:22:20;5.60;99.90
25058;DHT22;13057;50.978;11.034;2023-02-04T06:24:48;5.60;99.90
25058;DHT22;13057;50.978;11.034;2023-02-04T06:27:14;5.70;99.90
25058;DHT22;13057;50.978;11.034;2023-02-04T06:29:48;5.70;99.90
25058;DHT22;13057;50.978;11.034;2023-02-04T06:32:15;5.70;99.90
25058;DHT22;13057;50.978;11.034;2023-02-04T06:34:40;5.60;99.90
25058;DHT22;13057;50.978;11.034;2023-02-04T06:37:06;5.70;99.90
25058;DHT22;13057;50.978;11.034;2023-02-04T06:39:32;5.70;99.90
25058;DHT22;13057;50.978;11.034;2023-02-04T06:41:58;5.70;99.90
25058;DHT22;13057;50.978;11.034;2023-02-04T06:44:24;5.70;99.90
25058;DHT22;13057;50.978;11.034;2023-02-04T06:46:50;5.70;99.90
25058;DHT22;13057;50.978;11.034;2023-02-04T06:49:15;5.60;99.90
25058;DHT22;13057;50.978;11.034;2023-02-04T06:51:42;5.70;99.90
25058;DHT22;13057;50.978;11.034;2023-02-04T06:54:07;5.70;99.90
25058;DHT22;13057;50.978;11.034;2023-02-04T06:56:33;5.70;99.90
25058;DHT22;13057;50.978;11.034;2023-02-04T06:58:59;5.60;99.90
25058;DHT22;13057;50.978;11.034;2023-02-04T07:01:25;5.60;99.90
25058;DHT22;13057;50.978;11.034;2023-02-04T07:03:51;5.70;99.90
25058;DHT22;13057;50.978;11.034;2023-02-04T07:06:16;5.60;99.90
25058;DHT22;13057;50.978;11.034;2023-02-04T07:08:42;5.60;99.90
25058;DHT22;13057;50.978;11.034;2023-02-04T07:11:08;5.50;99.90
25058;DHT22;13057;50.978;11.034;2023-02-04T07:13:34;5.50;99.90
25058;DHT22;13057;50.978;11.034;2023-02-04T07:15:59;5.60;99.90
25058;DHT22;13057;50.978;11.034;2023-02-04T07:18:26;5.60;99.90
25058;DHT22;13057;50.978;11.034;2023-02-04T07:20:52;5.60;99.90
25058;DHT22;13057;50.978;11.034;2023-02-04T07:23:17;5.60;99.90
25058;DHT22;13057;50.978;11.034;2023-02-04T07:25:43;5.50;99.90
25058;DHT22;13057;50.978;11.034;2023-02-04T07:28:09;5.50;99.90
25058;DHT22;13057;50.978;11.034;2023-02-04T07:30:35;5.60;99.90
25058;DHT22;13057;50.978;11.034;2023-02-04T07:33:01;5.70;99.90
25058;DHT22;13057;50.978;11.034;2023-02-04T07:35:30;5.70;99.90
25058;DHT22;13057;50.978;11.034;2023-02-04T07:37:55;5.70;99.90
25058;DHT22;13057;50.978;11.034;2023-02-04T07:40:21;5.80;99.90
25058;DHT22;13057;50.978;11.034;2023-02-04T07:42:47;5.90;99.90
25058;DHT22;13057;50.978;11.034;2023-02-04T07:45:13;5.80;99.90
25058;DHT22;13057;50.978;11.034;2023-02-04T07:47:39;5.70;99.90
25058;DHT22;13057;50.978;11.034;2023-02-04T07:50:05;5.60;99.90
25058;DHT22;13057;50.978;11.034;2023-02-04T07:52:31;5.60;99.90
25058;DHT22;13057;50.978;11.034;2023-02-04T07:54:56;5.60;99.90
25058;DHT22;13057;50.978;11.034;2023-02-04T07:57:23;5.60;99.90
25058;DHT22;13057;50.978;11.034;2023-02-04T07:59:48;5.60;99.90
25058;DHT22;13057;50.978;11.034;2023-02-04T08:02:14;5.60;99.90
25058;DHT22;13057;50.978;11.034;2023-02-04T08:04:40;5.50;99.90
25058;DHT22;13057;50.978;11.034;2023-02-04T08:07:06;5.50;99.90
25058;DHT22;13057;50.978;11.034;2023-02-04T08:09:32;5.50;99.90
25058;DHT22;13057;50.978;11.034;2023-02-04T08:11:58;5.60;99.90
25058;DHT22;13057;50.978;11.034;2023-02-04T08:14:24;5.60;99.90
25058;DHT22;13057;50.978;11.034;2023-02-04T08:16:50;5.60;99.90
25058;DHT22;13057;50.978;11.034;2023-02-04T08:19:16;5.70;99.90
25058;DHT22;13057;50.978;11.034;2023-02-04T08:21:45;5.80;99.90
25058;DHT22;13057;50.978;11.034;2023-02-04T08:24:12;5.80;99.90
25058;DHT22;13057;50.978;11.034;2023-02-04T08:26:39;5.90;99.90
25058;DHT22;13057;50.978;11.034;2023-02-04T08:29:06;6.00;99.90
25058;DHT22;13057;50.978;11.034;2023-02-04T08:31:32;5.90;99.90
25058;DHT22;13057;50.978;11.034;2023-02-04T08:33:58;5.80;99.90
25058;DHT22;13057;50.978;11.034;2023-02-04T08:36:24;5.80;99.90
25058;DHT22;13057;50.978;11.034;2023-02-04T08:38:49;5.80;99.90
25058;DHT22;13057;50.978;11.034;2023-02-04T08:41:15;5.70;99.90
25058;DHT22;13057;50.978;11.034;2023-02-04T08:43:41;5.70;99.90
25058;DHT22;13057;50.978;11.034;2023-02-04T08:46:07;5.80;99.90
25058;DHT22;13057;50.978;11.034;2023-02-04T08:48:33;5.90;99.90
25058;DHT22;13057;50.978;11.034;2023-02-04T08:50:59;5.90;99.90
25058;DHT22;13057;50.978;11.034;2023-02-04T08:53:25;5.80;99.90
25058;DHT22;13057;50.978;11.034;2023-02-04T08:55:52;5.80;99.90
25058;DHT22;13057;50.978;11.034;2023-02-04T08:58:19;6.10;99.90
25058;DHT22;13057;50.978;11.034;2023-02-04T09:00:45;6.40;99.90
25058;DHT22;13057;50.978;11.034;2023-02-04T09:03:14;6.70;99.70
25058;DHT22;13057;50.978;11.034;2023-02-04T09:05:41;7.00;99.40
25058;DHT22;13057;50.978;11.034;2023-02-04T09:08:07;6.80;98.60
25058;DHT22;13057;50.978;11.034;2023-02-04T09:10:33;6.60;99.40
25058;DHT22;13057;50.978;11.034;2023-02-04T09:13:00;6.50;99.80
25058;DHT22;13057;50.978;11.034;2023-02-04T09:15:26;6.40;99.90
25058;DHT22;13057;50.978;11.034;2023-02-04T09:17:52;6.40;99.90
25058;DHT22;13057;50.978;11.034;2023-02-04T09:20:23;6.40;99.90
25058;DHT22;13057;50.978;11.034;2023-02-04T09:22:49;6.40;99.90
25058;DHT22;13057;50.978;11.034;2023-02-04T09:25:15;6.40;99.90
25058;DHT22;13057;50.978;11.034;2023-02-04T09:27:40;6.50;99.90
25058;DHT22;13057;50.978;11.034;2023-02-04T09:30:06;6.60;99.90
25058;DHT22;13057;50.978;11.034;2023-02-04T09:32:33;6.70;99.90
25058;DHT22;13057;50.978;11.034;2023-02-04T09:34:59;6.70;99.90
25058;DHT22;13057;50.978;11.034;2023-02-04T09:37:25;6.60;99.90
25058;DHT22;13057;50.978;11.034;2023-02-04T09:39:51;6.60;99.90
25058;DHT22;13057;50.978;11.034;2023-02-04T09:42:19;6.50;99.90
25058;DHT22;13057;50.978;11.034;2023-02-04T09:44:46;6.30;99.90
25058;DHT22;13057;50.978;11.034;2023-02-04T09:47:12;6.30;99.90
25058;DHT22;13057;50.978;11.034;2023-02-04T09:49:43;6.30;99.90
25058;DHT22;13057;50.978;11.034;2023-02-04T09:52:13;6.30;99.50
25058;DHT22;13057;50.978;11.034;2023-02-04T09:54:40;6.30;99.80
25058;DHT22;13057;50.978;11.034;2023-02-04T09:57:14;6.40;99.00
25058;DHT22;13057;50.978;11.034;2023-02-04T09:59:42;6.40;97.80
25058;DHT22;13057;50.978;11.034;2023-02-04T10:02:21;6.50;96.70
25058;DHT22;13057;50.978;11.034;2023-02-04T10:04:49;6.60;97.10
25058;DHT22;13057;50.978;11.034;2023-02-04T10:07:16;6.60;97.60
25058;DHT22;13057;50.978;11.034;2023-02-04T10:09:47;6.60;98.40
25058;DHT22;13057;50.978;11.034;2023-02-04T10:12:14;6.50;98.50
25058;DHT22;13057;50.978;11.034;2023-02-04T10:14:40;6.60;98.90
25058;DHT22;13057;50.978;11.034;2023-02-04T10:17:08;6.60;98.90
25058;DHT22;13057;50.978;11.034;2023-02-04T10:19:34;6.60;98.40
25058;DHT22;13057;50.978;11.034;2023-02-04T10:22:09;6.50;98.10
25058;DHT22;13057;50.978;11.034;2023-02-04T10:24:39;6.50;97.50
25058;DHT22;13057;50.978;11.034;2023-02-04T10:27:07;6.30;97.90
25058;DHT22;13057;50.978;11.034;2023-02-04T10:29:33;6.40;98.10
25058;DHT22;13057;50.978;11.034;2023-02-04T10:31:59;6.50;97.40
25058;DHT22;13057;50.978;11.034;2023-02-04T10:34:33;6.50;97.20
25058;DHT22;13057;50.978;11.034;2023-02-04T10:37:13;6.60;97.10
25058;DHT22;13057;50.978;11.034;2023-02-04T10:39:42;6.40;96.40
25058;DHT22;13057;50.978;11.034;2023-02-04T10:42:20;6.40;96.70
25058;DHT22;13057;50.978;11.034;2023-02-04T10:44:47;6.40;96.00
25058;DHT22;13057;50.978;11.034;2023-02-04T10:47:16;6.40;96.50
25058;DHT22;13057;50.978;11.034;2023-02-04T10:49:52;6.30;95.90
25058;DHT22;13057;50.978;11.034;2023-02-04T10:52:19;6.30;95.90
25058;DHT22;13057;50.978;11.034;2023-02-04T10:54:46;6.20;95.40
25058;DHT22;13057;50.978;11.034;2023-02-04T10:57:28;6.20;95.60
25058;DHT22;13057;50.978;11.034;2023-02-04T11:00:00;6.10;95.50
25058;DHT22;13057;50.978;11.034;2023-02-04T11:02:30;6.10;95.60
25058;DHT22;13057;50.978;11.034;2023-02-04T11:04:57;6.00;95.70
25058;DHT22;13057;50.978;11.034;2023-02-04T11:07:25;6.10;95.80
25058;DHT22;13057;50.978;11.034;2023-02-04T11:09:52;6.10;96.00
25058;DHT22;13057;50.978;11.034;2023-02-04T11:12:20;6.00;96.20
25058;DHT22;13057;50.978;11.034;2023-02-04T11:14:55;6.00;96.10
25058;DHT22;13057;50.978;11.034;2023-02-04T11:17:28;6.00;96.10
25058;DHT22;13057;50.978;11.034;2023-02-04T11:19:55;6.00;96.40
25058;DHT22;13057;50.978;11.034;2023-02-04T11:22:24;6.10;96.50
25058;DHT22;13057;50.978;11.034;2023-02-04T11:25:01;6.20;96.50
25058;DHT22;13057;50.978;11.034;2023-02-04T11:27:40;6.20;96.50
25058;DHT22;13057;50.978;11.034;2023-02-04T11:30:20;6.30;96.20
25058;DHT22;13057;50.978;11.034;2023-02-04T11:33:04;6.30;95.90
25058;DHT22;13057;50.978;11.034;2023-02-04T11:35:33;6.30;96.10
25058;DHT22;13057;50.978;11.034;2023-02-04T11:37:59;6.40;95.50
25058;DHT22;13057;50.978;11.034;2023-02-04T11:40:32;6.30;95.70
25058;DHT22;13057;50.978;11.034;2023-02-04T11:43:02;6.20;95.90
25058;DHT22;13057;50.978;11.034;2023-02-04T11:45:32;6.20;96.20
25058;DHT22;13057;50.978;11.034;2023-02-04T11:48:02;6.20;96.30
25058;DHT22;13057;50.978;11.034;2023-02-04T11:50:32;6.20;96.30
25058;DHT22;13057;50.978;11.034;2023-02-04T11:52:59;6.20;96.00
25058;DHT22;13057;50.978;11.034;2023-02-04T11:55:28;6.10;95.60
25058;DHT22;13057;50.978;11.034;2023-02-04T11:57:56;6.10;96.10
25058;DHT22;13057;50.978;11.034;2023-02-04T12:00:24;6.10;96.10
25058;DHT22;13057;50.978;11.034;2023-02-04T12:02:56;6.20;96.80
25058;DHT22;13057;50.978;11.034;2023-02-04T12:05:36;6.20;96.70
25058;DHT22;13057;50.978;11.034;2023-02-04T12:08:12;6.10;96.20
25058;DHT22;13057;50.978;11.034;2023-02-04T12:10:38;6.00;96.00
25058;DHT22;13057;50.978;11.034;2023-02-04T12:13:15;5.90;96.30
25058;DHT22;13057;50.978;11.034;2023-02-04T12:15:41;5.90;96.60
25058;DHT22;13057;50.978;11.034;2023-02-04T12:18:16;5.90;96.70
25058;DHT22;13057;50.978;11.034;2023-02-04T12:20:43;5.90;96.20
25058;DHT22;13057;50.978;11.034;2023-02-04T12:23:11;5.90;96.40
25058;DHT22;13057;50.978;11.034;2023-02-04T12:25:40;6.00;96.70
25058;DHT22;13057;50.978;11.034;2023-02-04T12:28:10;6.00;95.80
25058;DHT22;13057;50.978;11.034;2023-02-04T12:30:35;6.10;95.60
25058;DHT22;13057;50.978;11.034;2023-02-04T12:33:01;6.20;95.50
25058;DHT22;13057;50.978;11.034;2023-02-04T12:35:27;6.30;95.30
25058;DHT22;13057;50.978;11.034;2023-02-04T12:37:54;6.40;95.30
25058;DHT22;13057;50.978;11.034;2023-02-04T12:40:20;6.50;95.30
25058;DHT22;13057;50.978;11.034;2023-02-04T12:42:46;6.60;95.10
25058;DHT22;13057;50.978;11.034;2023-02-04T12:45:17;6.60;95.10
25058;DHT22;13057;50.978;11.034;2023-02-04T12:47:46;6.60;95.10
25058;DHT22;13057;50.978;11.034;2023-02-04T12:50:17;6.60;94.90
25058;DHT22;13057;50.978;11.034;2023-02-04T12:52:49;6.70;95.40
25058;DHT22;13057;50.978;11.034;2023-02-04T12:55:15;6.70;95.00
25058;DHT22;13057;50.978;11.034;2023-02-04T12:57:41;6.70;94.60
25058;DHT22;13057;50.978;11.034;2023-02-04T13:00:08;6.60;94.60
25058;DHT22;13057;50.978;11.034;2023-02-04T13:02:34;6.60;94.60
25058;DHT22;13057;50.978;11.034;2023-02-04T13:05:00;6.60;94.30
25058;DHT22;13057;50.978;11.034;2023-02-04T13:07:26;6.50;94.00
25058;DHT22;13057;50.978;11.034;2023-02-04T13:09:51;6.60;95.00
25058;DHT22;13057;50.978;11.034;2023-02-04T13:12:17;6.50;93.50
25058;DHT22;13057;50.978;11.034;2023-02-04T13:14:43;6.40;92.80
25058;DHT22;13057;50.978;11.034;2023-02-04T13:17:10;6.40;92.90
25058;DHT22;13057;50.978;11.034;2023-02-04T13:19:36;6.50;92.40
25058;DHT22;13057;50.978;11.034;2023-02-04T13:22:02;6.40;92.40
25058;DHT22;13057;50.978;11.034;2023-02-04T13:24:28;6.40;92.00
25058;DHT22;13057;50.978;11.034;2023-02-04T13:26:54;6.50;92.20
25058;DHT22;13057;50.978;11.034;2023-02-04T13:29:20;6.50;92.70
25058;DHT22;13057;50.978;11.034;2023-02-04T13:31:47;6.50;92.20
25058;DHT22;13057;50.978;11.034;2023-02-04T13:34:13;6.60;92.80
25058;DHT22;13057;50.978;11.034;2023-02-04T13:36:39;6.60;92.60
25058;DHT22;13057;50.978;11.034;2023-02-04T13:39:05;6.70;92.10
25058;DHT22;13057;50.978;11.034;2023-02-04T13:41:31;6.70;91.80
25058;DHT22;13057;50.978;11.034;2023-02-04T13:43:57;6.80;92.80
25058;DHT22;13057;50.978;11.034;2023-02-04T13:46:23;6.80;93.40
25058;DHT22;13057;50.978;11.034;2023-02-04T13:48:49;6.90;93.10
25058;DHT22;13057;50.978;11.034;2023-02-04T13:51:15;7.00;93.90
25058;DHT22;13057;50.978;11.034;2023-02-04T13:53:42;7.00;94.80
25058;DHT22;13057;50.978;11.034;2023-02-04T13:56:08;7.10;94.70
25058;DHT22;13057;50.978;11.034;2023-02-04T13:58:33;7.00;94.30
25058;DHT22;13057;50.978;11.034;2023-02-04T14:01:00;7.00;94.50
25058;DHT22;13057;50.978;11.034;2023-02-04T14:03:27;7.00;94.80
25058;DHT22;13057;50.978;11.034;2023-02-04T14:05:53;6.90;94.60
25058;DHT22;13057;50.978;11.034;2023-02-04T14:08:19;6.90;94.70
25058;DHT22;13057;50.978;11.034;2023-02-04T14:10:46;6.80;95.30
25058;DHT22;13057;50.978;11.034;2023-02-04T14:13:12;6.90;95.00
25058;DHT22;13057;50.978;11.034;2023-02-04T14:15:38;6.90;94.40
25058;DHT22;13057;50.978;11.034;2023-02-04T14:18:07;6.90;94.20
25058;DHT22;13057;50.978;11.034;2023-02-04T14:20:33;6.80;94.40
25058;DHT22;13057;50.978;11.034;2023-02-04T14:22:59;6.70;94.70
25058;DHT22;13057;50.978;11.034;2023-02-04T14:25:25;6.70;94.20
25058;DHT22;13057;50.978;11.034;2023-02-04T14:27:51;6.70;94.50
25058;DHT22;13057;50.978;11.034;2023-02-04T14:30:19;6.80;95.40
25058;DHT22;13057;50.978;11.034;2023-02-04T14:32:46;6.90;94.30
25058;DHT22;13057;50.978;11.034;2023-02-04T14:35:13;6.90;94.40
25058;DHT22;13057;50.978;11.034;2023-02-04T14:37:39;6.90;94.10
25058;DHT22;13057;50.978;11.034;2023-02-04T14:40:05;6.80;94.40
25058;DHT22;13057;50.978;11.034;2023-02-04T14:42:32;6.80;94.40
25058;DHT22;13057;50.978;11.034;2023-02-04T14:44:58;6.80;94.30
25058;DHT22;13057;50.978;11.034;2023-02-04T14:47:24;6.90;94.20
25058;DHT22;13057;50.978;11.034;2023-02-04T14:49:49;6.90;94.60
25058;DHT22;13057;50.978;11.034;2023-02-04T14:52:16;6.90;94.60
25058;DHT22;13057;50.978;11.034;2023-02-04T14:54:43;6.90;94.60
25058;DHT22;13057;50.978;11.034;2023-02-04T14:57:10;6.90;94.20
25058;DHT22;13057;50.978;11.034;2023-02-04T14:59:37;6.80;94.30
25058;DHT22;13057;50.978;11.034;2023-02-04T15:02:05;6.80;94.40
25058;DHT22;13057;50.978;11.034;2023-02-04T15:04:31;6.80;94.70
25058;DHT22;13057;50.978;11.034;2023-02-04T15:06:57;6.70;94.40
25058;DHT22;13057;50.978;11.034;2023-02-04T15:09:24;6.70;94.30
25058;DHT22;13057;50.978;11.034;2023-02-04T15:11:50;6.70;94.10
25058;DHT22;13057;50.978;11.034;2023-02-04T15:14:17;6.70;94.70
25058;DHT22;13057;50.978;11.034;2023-02-04T15:16:43;6.60;93.80
25058;DHT22;13057;50.978;11.034;2023-02-04T15:19:13;6.50;93.90
25058;DHT22;13057;50.978;11.034;2023-02-04T15:21:39;6.50;94.00
25058;DHT22;13057;50.978;11.034;2023-02-04T15:24:05;6.60;94.40
25058;DHT22;13057;50.978;11.034;2023-02-04T15:26:31;6.60;93.90
25058;DHT22;13057;50.978;11.034;2023-02-04T15:28:57;6.60;93.70
25058;DHT22;13057;50.978;11.034;2023-02-04T15:31:23;6.60;93.60